Delta Virtual Airport Information Service

Toluca International Airport

ICAO: MMTO Country: Mexico
Latitude: 19.3371 Longitude: -99.566
Latest Arrival : DAC566 (MMMY-MMTO) Latest Departure : FDX54 (2) (MMTO-KMEM)


WX CaptureLIVE
Data provided by noaa.gov | Fetched at 18:39:16

METAR : MMTO 172142Z 15004KT 6SM FEW020 SCT070 BKN200 17/12 A3037 RMK 8/463 HZY

TAF : MMTO 172142Z 15004KT 6SM FEW020 SCT070 BKN200 17/12 A3037 RMK 8/463 HZY


Runway Data for MMTO
Data provided by openaviationdata.com

Runway ID Mag Var Hdg Length Elevation Surface ILS Freq ILS Id ILS Slope
15 7 150° 13823 ft 8464 ft Asphalt 108.9 ITLC 3
33 7 330° 13823 ft 8464 ft Asphalt -- -- --

Toluca International Airport, Mexico
Use only for reference purposes



Not for navigational purposes.